Time;durP1;ratioP1;P1;durP2;ratioP2;P2;SDS_P1;SDS_P2;PMS_P1;PMS_P2;Temp;Humidity;BMP_temperature;BMP_pressure;BME280_temperature;BME280_humidity;BME280_pressure;Samples;Min_cycle;Max_cycle;Signal;HPM_P1;HPM_P2
2023/07/31 00:00:16;;;;;;;3.47;2.60;;;;;;;25.18;48.93;96482.16;5070249;28;20192;-75
2023/07/31 00:02:43;;;;;;;5.13;2.50;;;;;;;24.57;51.39;96482.84;5088487;28;20279;-74
2023/07/31 00:05:10;;;;;;;5.97;3.00;;;;;;;24.74;50.60;96465.97;5087934;28;20202;-75
2023/07/31 00:07:37;;;;;;;3.63;3.33;;;;;;;24.77;50.22;96462.16;5088377;28;20274;-75
2023/07/31 00:10:05;;;;;;;3.10;2.80;;;;;;;24.60;50.82;96471.09;5087893;28;20271;-75
2023/07/31 00:12:32;;;;;;;4.00;3.00;;;;;;;24.36;51.73;96468.53;5087768;28;20195;-75
2023/07/31 00:15:00;;;;;;;3.73;2.87;;;;;;;24.25;52.33;96467.84;5088002;28;20226;-75
2023/07/31 00:17:30;;;;;;;3.47;2.70;;;;;;;24.38;51.64;96461.25;5087965;28;20255;-77
2023/07/31 00:19:57;;;;;;;3.60;2.50;;;;;;;24.10;52.13;96456.31;5088278;28;20202;-77
2023/07/31 00:22:26;;;;;;;3.20;2.73;;;;;;;24.39;52.31;96436.41;5087648;28;20212;-77
2023/07/31 00:24:53;;;;;;;6.30;2.80;;;;;;;24.75;50.75;96456.19;5069883;28;20210;-76
2023/07/31 00:27:20;;;;;;;3.03;2.73;;;;;;;24.85;49.87;96454.97;5087818;28;20690;-77
2023/07/31 00:29:47;;;;;;;4.37;2.40;;;;;;;25.03;49.61;96452.09;5087827;28;20194;-76
2023/07/31 00:32:14;;;;;;;3.10;2.80;;;;;;;25.23;49.18;96455.94;5087845;28;20191;-78
2023/07/31 00:34:41;;;;;;;3.30;2.93;;;;;;;24.76;49.75;96410.16;5069342;28;20261;-79
2023/07/31 00:37:08;;;;;;;2.47;2.03;;;;;;;24.91;49.37;96459.59;5069732;28;20191;-77
2023/07/31 00:39:36;;;;;;;5.40;2.70;;;;;;;24.64;49.70;96456.53;5087473;28;20187;-77
2023/07/31 00:42:03;;;;;;;3.37;2.80;;;;;;;24.76;49.84;96447.22;5087895;28;20689;-79
2023/07/31 00:44:31;;;;;;;2.53;2.10;;;;;;;24.73;49.74;96442.28;5069472;28;20184;-76
2023/07/31 00:47:00;;;;;;;3.17;2.67;;;;;;;24.85;48.62;96452.31;5087487;28;20767;-76
2023/07/31 00:49:27;;;;;;;3.37;2.33;;;;;;;24.68;48.71;96444.59;5087375;28;20671;-79
2023/07/31 00:51:57;;;;;;;3.70;2.60;;;;;;;24.52;49.03;96442.00;5087388;28;20195;-77
2023/07/31 00:54:25;;;;;;;4.93;2.73;;;;;;;24.61;48.05;96438.31;5069601;28;20212;-77
2023/07/31 00:56:54;;;;;;;2.83;2.60;;;;;;;24.28;48.95;96423.56;5087145;28;20774;-74
2023/07/31 00:59:21;;;;;;;2.83;2.53;;;;;;;23.87;49.61;96426.22;5069305;28;20194;-74
2023/07/31 01:01:49;;;;;;;2.43;2.07;;;;;;;23.53;49.67;96385.09;5087030;28;20196;-75
2023/07/31 01:04:17;;;;;;;5.07;2.63;;;;;;;23.78;49.91;96426.41;5052112;28;20559;-74
2023/07/31 01:06:52;;;;;;;3.97;2.57;;;;;;;23.62;49.46;96405.25;5087112;28;20254;-75
2023/07/31 01:09:50;;;;;;;3.43;1.97;;;;;;;23.70;49.73;96423.75;5086473;28;20217;-74
2023/07/31 01:12:17;;;;;;;3.00;2.57;;;;;;;23.65;49.66;96426.91;5052200;28;20325;-75
2023/07/31 01:15:01;;;;;;;3.73;2.43;;;;;;;23.80;48.67;96424.41;5068825;28;20198;-74
2023/07/31 01:17:31;;;;;;;3.07;2.17;;;;;;;23.74;49.05;96425.09;5069218;28;20596;-74
2023/07/31 01:20:02;;;;;;;2.87;1.80;;;;;;;23.74;48.75;96422.44;5052392;28;20227;-76
2023/07/31 01:22:43;;;;;;;2.27;1.80;;;;;;;24.14;48.04;96433.81;5069226;28;20815;-74
2023/07/31 01:25:28;;;;;;;2.23;1.97;;;;;;;24.29;48.11;96427.84;5068254;28;20198;-75
2023/07/31 01:28:02;;;;;;;5.10;2.20;;;;;;;24.33;47.49;96432.63;5086825;28;20278;-75
2023/07/31 01:30:37;;;;;;;2.10;1.90;;;;;;;24.50;47.38;96428.94;5068730;28;20183;-75
2023/07/31 01:33:07;;;;;;;2.33;1.80;;;;;;;24.65;46.95;96439.63;5068954;28;20946;-75
2023/07/31 01:35:35;;;;;;;2.20;1.87;;;;;;;24.77;46.22;96446.25;5086885;28;20214;-75
2023/07/31 01:38:02;;;;;;;2.60;2.10;;;;;;;24.76;46.83;96441.94;5068789;28;20237;-77
2023/07/31 01:40:30;;;;;;;2.47;1.90;;;;;;;24.94;46.32;96445.16;5068475;28;20203;-75
2023/07/31 01:42:57;;;;;;;3.97;2.47;;;;;;;24.94;46.59;96445.16;5068508;28;20206;-75
2023/07/31 01:45:24;;;;;;;4.03;2.80;;;;;;;24.87;46.79;96446.88;5086619;28;20652;-75
2023/07/31 01:47:51;;;;;;;3.20;2.60;;;;;;;24.95;46.17;96449.47;5068392;28;20295;-75
2023/07/31 01:50:18;;;;;;;3.00;2.10;;;;;;;24.94;46.44;96453.09;5086723;28;20689;-75
2023/07/31 01:52:45;;;;;;;4.77;2.20;;;;;;;25.02;46.18;96447.78;5051833;28;20197;-78
2023/07/31 01:55:13;;;;;;;4.13;1.80;;;;;;;24.90;46.33;96462.41;5087098;28;20251;-75
2023/07/31 01:57:40;;;;;;;5.37;2.43;;;;;;;25.00;46.44;96453.25;5068599;28;20221;-75
2023/07/31 02:00:07;;;;;;;3.50;2.40;;;;;;;25.06;45.39;96450.91;5051778;28;20195;-77
2023/07/31 02:02:40;;;;;;;2.90;2.33;;;;;;;24.85;46.35;96459.47;5087018;28;20187;-75
2023/07/31 02:05:08;;;;;;;3.67;2.40;;;;;;;24.72;47.43;96444.09;5068371;28;20190;-76
2023/07/31 02:07:37;;;;;;;3.57;2.30;;;;;;;24.80;46.44;96448.53;5086767;28;20207;-76
2023/07/31 02:10:04;;;;;;;3.33;2.87;;;;;;;24.73;47.23;96440.44;5086177;28;20314;-75
2023/07/31 02:12:33;;;;;;;3.93;2.17;;;;;;;24.15;48.34;96438.09;5086501;28;20188;-74
2023/07/31 02:15:02;;;;;;;2.80;2.50;;;;;;;23.69;49.29;96390.38;5068494;28;20273;-74
2023/07/31 02:17:32;;;;;;;2.37;1.90;;;;;;;23.95;49.23;96428.84;5086327;28;20233;-75
2023/07/31 02:20:00;;;;;;;4.57;2.50;;;;;;;24.02;48.56;96421.91;5086426;28;20194;-76
2023/07/31 02:22:30;;;;;;;2.37;1.90;;;;;;;23.75;48.89;96393.19;5086200;28;20202;-74
2023/07/31 02:24:57;;;;;;;2.93;2.13;;;;;;;23.87;49.17;96410.34;5086850;28;20191;-74
2023/07/31 02:27:27;;;;;;;3.00;2.33;;;;;;;23.67;49.75;96409.03;5051222;28;20298;-75
2023/07/31 02:29:55;;;;;;;2.27;2.03;;;;;;;23.88;49.86;96422.59;5068374;28;20184;-75
2023/07/31 02:32:22;;;;;;;3.27;2.10;;;;;;;24.05;48.68;96420.78;5086025;28;20304;-76
2023/07/31 02:34:49;;;;;;;4.63;2.97;;;;;;;24.06;49.36;96422.44;5068317;28;20191;-75
2023/07/31 02:37:17;;;;;;;4.33;2.93;;;;;;;24.00;49.59;96413.31;5088853;28;20611;-74
2023/07/31 02:39:44;;;;;;;3.87;2.77;;;;;;;24.19;49.13;96420.91;5089656;28;20633;-75
2023/07/31 02:42:11;;;;;;;4.90;2.67;;;;;;;24.29;48.63;96419.91;5089928;28;20230;-76
2023/07/31 02:44:38;;;;;;;4.90;2.50;;;;;;;24.29;49.30;96411.94;5089679;28;20190;-75
2023/07/31 02:47:05;;;;;;;5.17;2.80;;;;;;;24.57;48.64;96415.81;5089848;28;20190;-76
2023/07/31 02:49:33;;;;;;;3.87;2.30;;;;;;;24.77;48.79;96420.56;5089693;28;20196;-75
2023/07/31 02:52:00;;;;;;;3.27;2.83;;;;;;;24.64;49.30;96424.75;5089615;28;20188;-75
2023/07/31 02:54:27;;;;;;;7.07;2.70;;;;;;;24.60;49.59;96424.28;5071509;28;20190;-76
2023/07/31 02:56:54;;;;;;;4.23;2.67;;;;;;;24.63;49.97;96423.06;5072385;28;20301;-76
2023/07/31 02:59:22;;;;;;;3.37;3.03;;;;;;;24.57;50.53;96418.47;5055664;28;20196;-78
2023/07/31 03:01:49;;;;;;;9.20;2.87;;;;;;;24.49;51.04;96421.97;5071227;28;20214;-75
2023/07/31 03:04:16;;;;;;;6.20;3.20;;;;;;;24.60;50.57;96413.69;5071286;28;20270;-75
2023/07/31 03:06:45;;;;;;;15.30;4.90;;;;;;;24.72;50.29;96430.00;5089179;28;20188;-75
2023/07/31 03:09:12;;;;;;;13.00;3.60;;;;;;;24.62;50.58;96432.88;5088938;28;20313;-77
2023/07/31 03:11:39;;;;;;;15.07;4.77;;;;;;;24.73;50.44;96434.31;5070877;28;20776;-78
2023/07/31 03:14:06;;;;;;;14.33;5.10;;;;;;;24.75;50.29;96432.34;5088959;28;20214;-75
2023/07/31 03:16:34;;;;;;;8.90;3.70;;;;;;;24.91;49.68;96437.56;5063512;28;20227;-74
2023/07/31 03:19:01;;;;;;;13.07;4.37;;;;;;;24.81;50.54;96439.63;5017662;28;20203;-76
2023/07/31 03:21:28;;;;;;;7.93;5.03;;;;;;;24.86;50.05;96442.56;5051972;28;20282;-73
2023/07/31 03:23:55;;;;;;;5.30;3.70;;;;;;;24.79;51.05;96449.56;5068453;28;20215;-74
2023/07/31 03:26:22;;;;;;;4.70;3.77;;;;;;;24.90;50.86;96457.94;5050614;28;20667;-73
2023/07/31 03:28:49;;;;;;;5.03;3.80;;;;;;;24.86;51.68;96456.63;5050603;28;20258;-74
2023/07/31 03:31:16;;;;;;;4.60;3.17;;;;;;;24.79;51.24;96460.16;5068867;28;20630;-75
2023/07/31 03:33:43;;;;;;;8.17;2.83;;;;;;;24.38;52.17;96445.38;5083954;28;20210;-74
2023/07/31 03:36:10;;;;;;;5.80;2.70;;;;;;;23.82;54.21;96464.75;5088162;28;20290;-74
2023/07/31 03:38:38;;;;;;;3.50;3.10;;;;;;;23.59;54.70;96464.56;5088614;28;20654;-75
2023/07/31 03:41:07;;;;;;;4.80;2.50;;;;;;;22.98;55.12;96379.56;5070852;28;20734;-74
2023/07/31 03:43:35;;;;;;;5.80;3.60;;;;;;;23.18;55.86;96476.03;5070382;28;20684;-74
2023/07/31 03:46:03;;;;;;;5.77;4.67;;;;;;;23.21;56.00;96481.81;5070321;28;20194;-76
2023/07/31 03:48:31;;;;;;;4.23;3.43;;;;;;;23.16;56.94;96484.09;5087920;28;20184;-73
2023/07/31 03:50:59;;;;;;;4.97;4.40;;;;;;;23.24;57.07;96497.34;5070179;28;20184;-74
2023/07/31 03:53:26;;;;;;;8.20;4.37;;;;;;;23.45;57.41;96486.38;5087986;28;20197;-75
2023/07/31 03:55:53;;;;;;;6.63;4.23;;;;;;;23.56;57.36;96487.84;5087846;28;20305;-74
2023/07/31 03:58:21;;;;;;;10.23;4.60;;;;;;;23.72;56.59;96480.75;5052899;28;20207;-75
2023/07/31 04:00:48;;;;;;;5.30;3.57;;;;;;;23.88;55.44;96487.88;5088060;28;20280;-74
2023/07/31 04:03:15;;;;;;;4.80;3.17;;;;;;;23.89;55.43;96492.16;5088273;28;20691;-74
2023/07/31 04:05:42;;;;;;;6.30;3.83;;;;;;;23.94;54.21;96488.06;5088035;28;20194;-76
2023/07/31 04:08:09;;;;;;;6.70;3.23;;;;;;;23.87;55.18;96484.41;5088054;28;20185;-75
2023/07/31 04:10:37;;;;;;;6.03;3.70;;;;;;;23.84;56.36;96466.25;5069639;28;20254;-77
2023/07/31 04:13:04;;;;;;;4.00;3.20;;;;;;;23.83;59.50;96483.09;5083254;28;20217;-77
2023/07/31 04:15:31;;;;;;;7.53;3.17;;;;;;;23.45;61.91;96496.94;5084936;28;20202;-78
2023/07/31 04:17:58;;;;;;;5.73;3.60;;;;;;;23.22;63.63;96488.75;5087106;28;20213;-76
2023/07/31 04:20:25;;;;;;;5.10;2.90;;;;;;;;;;5087068;28;20192;-76
2023/07/31 04:22:52;;;;;;;4.07;3.20;;;;;;;22.94;66.46;96478.56;5067492;28;20667;-75
2023/07/31 04:25:19;;;;;;;4.33;3.40;;;;;;;22.82;67.74;96485.13;5067478;28;20198;-76
2023/07/31 04:27:46;;;;;;;4.63;3.20;;;;;;;22.68;67.90;96489.22;5067092;28;20216;-75
2023/07/31 04:30:14;;;;;;;5.00;2.90;;;;;;;22.26;69.07;96478.53;5067943;28;20267;-76
2023/07/31 04:32:43;;;;;;;5.80;2.97;;;;;;;22.51;68.79;96496.19;5067253;28;20204;-77
2023/07/31 04:35:10;;;;;;;5.83;3.60;;;;;;;22.42;68.87;96496.31;5074894;28;20675;-79
2023/07/31 04:37:38;;;;;;;3.67;2.87;;;;;;;22.29;70.64;96504.63;5068998;28;20257;-74
2023/07/31 04:40:06;;;;;;;4.17;3.03;;;;;;;22.53;69.97;96496.84;5069613;28;20201;-76
2023/07/31 04:42:34;;;;;;;4.23;2.87;;;;;;;22.55;70.31;96508.09;5069222;28;20949;-76
2023/07/31 04:45:02;;;;;;;8.40;5.13;;;;;;;22.74;69.88;96509.69;5069176;28;20198;-76
2023/07/31 04:47:30;;;;;;;5.07;4.23;;;;;;;22.91;69.71;96515.88;5052185;28;20201;-76
2023/07/31 04:49:57;;;;;;;4.73;3.27;;;;;;;23.01;69.14;96506.03;5052043;28;20244;-76
2023/07/31 04:52:25;;;;;;;3.90;3.40;;;;;;;22.85;69.95;96512.06;5087378;28;20213;-76
2023/07/31 04:54:52;;;;;;;7.63;4.13;;;;;;;22.53;70.41;96488.94;5086894;28;20286;-76
2023/07/31 04:57:19;;;;;;;4.93;3.73;;;;;;;22.61;71.02;96520.69;5068137;28;20229;-76
2023/07/31 04:59:46;;;;;;;5.43;3.37;;;;;;;22.44;70.28;96508.34;5086074;28;20283;-82
2023/07/31 05:02:16;;;;;;;4.37;2.90;;;;;;;22.47;70.73;96513.31;5068950;28;20200;-77
2023/07/31 05:04:43;;;;;;;4.63;3.03;;;;;;;22.42;71.45;96520.84;5069004;28;20687;-82
2023/07/31 05:07:10;;;;;;;5.67;3.37;;;;;;;22.31;71.30;96515.03;5086842;28;20199;-85
2023/07/31 05:09:39;;;;;;;3.80;2.73;;;;;;;22.22;70.59;96510.66;5068870;28;20224;-82
2023/07/31 05:12:06;;;;;;;3.67;2.80;;;;;;;22.21;71.28;96527.50;5087086;28;20205;-81
2023/07/31 05:14:33;;;;;;;3.77;3.00;;;;;;;22.31;69.96;96530.84;5052211;28;20196;-80
2023/07/31 05:17:00;;;;;;;5.07;3.20;;;;;;;22.35;70.92;96516.38;5087203;28;20326;-81
2023/07/31 05:19:28;;;;;;;3.63;2.80;;;;;;;22.19;71.04;96511.00;5069320;28;20733;-77
2023/07/31 05:21:55;;;;;;;4.57;3.57;;;;;;;22.32;71.64;96538.59;5069134;28;20233;-82
2023/07/31 05:24:23;;;;;;;7.20;3.90;;;;;;;22.14;71.74;96519.34;5087487;28;20241;-80
2023/07/31 05:26:50;;;;;;;5.63;3.97;;;;;;;22.24;71.98;96541.19;5088772;28;20194;-77
2023/07/31 05:29:17;;;;;;;6.80;3.40;;;;;;;22.37;72.55;96538.16;5089123;28;20190;-76
2023/07/31 05:31:44;;;;;;;5.73;3.77;;;;;;;22.28;72.81;96526.72;5070298;28;20199;-80
2023/07/31 05:34:12;;;;;;;6.03;3.10;;;;;;;22.48;72.85;96551.91;5088171;28;20198;-78
2023/07/31 05:36:39;;;;;;;5.27;3.47;;;;;;;22.10;74.40;96525.91;5086743;28;20317;-77
2023/07/31 05:39:08;;;;;;;5.40;3.70;;;;;;;22.00;74.05;96538.38;5072142;28;20206;-83
2023/07/31 05:41:35;;;;;;;5.33;3.60;;;;;;;22.04;74.27;96547.63;5092061;28;20194;-84
2023/07/31 05:44:05;;;;;;;6.03;4.10;;;;;;;22.18;74.03;96541.81;5052743;28;20582;-79
2023/07/31 05:46:32;;;;;;;4.80;3.63;;;;;;;21.42;76.35;96548.50;5036831;28;20205;-86
2023/07/31 05:49:00;;;;;;;5.70;4.00;;;;;;;21.56;76.24;96553.25;5087241;28;20209;-81
2023/07/31 05:51:28;;;;;;;8.17;4.60;;;;;;;21.57;78.48;96522.47;5088231;28;20192;-86
2023/07/31 05:53:55;;;;;;;7.17;4.90;;;;;;;21.94;75.67;96551.34;5052187;28;20200;-77
2023/07/31 05:56:22;;;;;;;6.43;4.43;;;;;;;22.05;75.51;96561.66;5086432;28;20230;-81
2023/07/31 05:58:50;;;;;;;6.73;4.03;;;;;;;22.23;74.97;96565.94;5086502;28;20214;-82
2023/07/31 06:01:17;;;;;;;5.07;3.67;;;;;;;22.37;75.21;96553.97;5068935;28;20189;-82
2023/07/31 06:03:45;;;;;;;11.03;4.57;;;;;;;22.26;74.25;96544.50;5068074;28;20218;-79
2023/07/31 06:06:13;;;;;;;7.37;4.53;;;;;;;22.45;74.46;96568.06;5051460;28;20188;-84
2023/07/31 06:08:41;;;;;;;7.90;4.40;;;;;;;22.52;75.39;96577.00;5051162;28;20717;-78
2023/07/31 06:11:09;;;;;;;8.77;5.00;;;;;;;22.19;75.17;96576.94;5087355;28;20202;-79
2023/07/31 06:13:36;;;;;;;6.13;4.20;;;;;;;21.49;77.93;96557.47;5055204;28;20784;-82
2023/07/31 06:16:06;;;;;;;8.40;4.63;;;;;;;21.28;79.19;96574.50;5071732;28;20203;-78
2023/07/31 06:18:33;;;;;;;5.67;4.47;;;;;;;21.47;78.45;96553.31;5090218;28;20342;-78
2023/07/31 06:21:00;;;;;;;7.63;4.73;;;;;;;21.24;79.06;96583.69;5071547;28;20220;-77
2023/07/31 06:23:28;;;;;;;5.87;4.73;;;;;;;21.08;80.55;96594.03;5071975;28;20213;-78
2023/07/31 06:25:55;;;;;;;6.03;5.03;;;;;;;21.33;79.88;96593.34;5071194;28;20260;-77
2023/07/31 06:28:29;;;;;;;7.87;5.10;;;;;;;21.04;79.39;96567.97;5069609;28;20206;-78
2023/07/31 06:30:57;;;;;;;6.43;4.03;;;;;;;21.05;78.70;96595.97;5071610;28;20626;-78
2023/07/31 06:33:25;;;;;;;7.03;4.40;;;;;;;21.06;79.78;96576.53;5090439;28;20218;-82
2023/07/31 06:35:52;;;;;;;8.00;5.30;;;;;;;21.31;79.92;96596.09;5072483;28;20216;-78
2023/07/31 06:38:24;;;;;;;7.07;5.60;;;;;;;21.53;79.53;96553.56;5052161;28;20257;-82
2023/07/31 06:40:51;;;;;;;4.50;4.10;;;;;;;21.86;76.14;96599.56;5035369;28;20207;-80
2023/07/31 06:43:19;;;;;;;6.67;4.43;;;;;;;21.86;76.64;96596.91;5069284;28;20210;-75
2023/07/31 06:45:48;;;;;;;5.53;5.03;;;;;;;22.17;76.17;96582.38;5090638;28;20216;-77
2023/07/31 06:48:24;;;;;;;7.03;4.70;;;;;;;22.16;75.75;96585.97;5059690;28;20192;-77
2023/07/31 06:50:54;;;;;;;6.63;4.67;;;;;;;21.91;75.34;96588.56;5088358;28;20195;-79
2023/07/31 06:53:21;;;;;;;5.33;4.77;;;;;;;21.73;77.20;96599.06;5106885;28;20220;-76
2023/07/31 06:55:51;;;;;;;5.57;4.10;;;;;;;21.42;78.52;96587.19;5092114;28;20187;-74
2023/07/31 06:58:18;;;;;;;5.53;4.57;;;;;;;21.59;77.23;96596.94;5091740;28;20227;-75
2023/07/31 07:00:45;;;;;;;5.03;4.53;;;;;;;21.72;76.09;96574.50;5090288;28;20220;-75
2023/07/31 07:03:14;;;;;;;6.17;5.10;;;;;;;21.83;76.06;96573.47;5070294;28;20201;-74
2023/07/31 07:05:41;;;;;;;5.80;4.60;;;;;;;22.29;75.04;96591.69;5071280;28;20190;-75
2023/07/31 07:08:09;;;;;;;5.33;4.57;;;;;;;22.20;74.56;96597.03;5054042;28;20199;-77
2023/07/31 07:10:37;;;;;;;9.40;6.00;;;;;;;22.27;74.34;96583.09;5089275;28;20194;-75
2023/07/31 07:13:04;;;;;;;6.33;5.53;;;;;;;22.25;75.14;96587.72;5070581;28;20195;-77
2023/07/31 07:15:32;;;;;;;7.70;6.33;;;;;;;22.40;75.80;96588.00;5088465;28;20214;-82
2023/07/31 07:18:00;;;;;;;8.80;5.97;;;;;;;22.55;75.00;96589.91;5070469;28;20255;-76
2023/07/31 07:20:27;;;;;;;8.63;5.50;;;;;;;22.61;74.11;96577.94;5070004;28;20290;-75
2023/07/31 07:22:54;;;;;;;12.23;11.03;;;;;;;22.81;74.59;96589.13;5069798;28;20235;-83
2023/07/31 07:25:21;;;;;;;8.73;6.90;;;;;;;23.16;73.82;96602.19;5088338;28;20250;-78
2023/07/31 07:27:48;;;;;;;13.87;8.07;;;;;;;23.42;74.03;96592.41;5088761;28;20185;-76
2023/07/31 07:30:16;;;;;;;10.40;6.87;;;;;;;23.47;72.34;96582.19;5088484;28;20242;-74
2023/07/31 07:32:43;;;;;;;16.40;9.10;;;;;;;23.39;73.57;96564.47;5088023;28;20668;-74
2023/07/31 07:35:11;;;;;;;15.70;9.03;;;;;;;23.59;72.93;96572.13;5069766;28;20734;-77
2023/07/31 07:37:38;;;;;;;11.43;9.10;;;;;;;23.68;74.27;96579.91;5070830;28;20221;-75
2023/07/31 07:40:06;;;;;;;9.50;8.00;;;;;;;23.58;73.56;96587.16;5089508;28;20187;-77
2023/07/31 07:42:34;;;;;;;11.73;7.23;;;;;;;23.26;73.11;96595.81;5088118;28;20214;-77
2023/07/31 07:45:01;;;;;;;11.33;6.70;;;;;;;23.39;72.22;96579.50;5088701;28;20300;-79
2023/07/31 07:47:29;;;;;;;13.27;8.33;;;;;;;23.82;71.80;96597.78;5069655;28;20602;-74
2023/07/31 07:49:56;;;;;;;20.47;14.60;;;;;;;23.79;73.06;96589.38;5069278;28;20681;-77
2023/07/31 07:52:23;;;;;;;11.73;7.93;;;;;;;23.86;70.61;96612.38;5069506;28;20202;-75
2023/07/31 07:54:50;;;;;;;10.20;7.20;;;;;;;23.97;69.75;96605.94;5086954;28;20198;-75
2023/07/31 07:57:18;;;;;;;7.70;6.33;;;;;;;23.33;71.10;96596.84;5069628;28;20626;-74
2023/07/31 07:59:45;;;;;;;8.77;6.97;;;;;;;23.22;72.23;96597.09;5069830;28;20183;-75
2023/07/31 08:02:12;;;;;;;13.10;9.50;;;;;;;23.43;71.99;96599.38;5087880;28;20191;-73
2023/07/31 08:04:40;;;;;;;7.17;5.87;;;;;;;23.52;70.98;96608.97;5069616;28;20195;-75
2023/07/31 08:07:07;;;;;;;10.20;6.20;;;;;;;23.99;68.00;96607.41;5053246;28;20191;-73
2023/07/31 08:09:34;;;;;;;7.57;6.53;;;;;;;24.31;68.42;96593.44;5087027;28;20231;-77
2023/07/31 08:12:03;;;;;;;8.40;7.40;;;;;;;24.55;66.65;96598.72;5068977;28;20213;-74
2023/07/31 08:14:30;;;;;;;9.93;7.00;;;;;;;24.74;66.30;96613.44;5087227;28;20195;-74
2023/07/31 08:17:00;;;;;;;8.43;6.73;;;;;;;24.83;66.15;96602.66;5068738;28;20677;-75
2023/07/31 08:19:27;;;;;;;7.07;6.37;;;;;;;25.28;64.85;96603.88;5087682;28;20192;-75
2023/07/31 08:21:55;;;;;;;8.73;6.43;;;;;;;25.47;64.41;96611.47;5068638;28;20220;-76
2023/07/31 08:24:24;;;;;;;7.87;6.10;;;;;;;25.55;64.30;96614.09;5087195;28;20188;-74
2023/07/31 08:26:51;;;;;;;13.50;7.23;;;;;;;25.87;64.34;96591.84;5068922;28;20674;-74
2023/07/31 08:29:19;;;;;;;10.30;6.23;;;;;;;26.39;63.11;96622.03;5068581;28;20184;-75
2023/07/31 08:31:46;;;;;;;10.50;6.97;;;;;;;26.19;61.88;96595.16;5068922;28;20722;-75
2023/07/31 08:34:14;;;;;;;10.47;7.27;;;;;;;26.57;61.35;96603.97;5086788;28;20200;-74
2023/07/31 08:36:41;;;;;;;8.20;6.03;;;;;;;26.52;62.12;96606.34;5068958;28;20200;-73
2023/07/31 08:39:09;;;;;;;8.60;6.00;;;;;;;26.08;62.16;96565.53;5086777;28;20229;-75
2023/07/31 08:41:39;;;;;;;8.40;7.13;;;;;;;25.82;65.19;96590.53;5069005;28;20882;-75
2023/07/31 08:44:11;;;;;;;10.80;7.70;;;;;;;26.35;63.81;96600.34;5072002;28;20197;-76
2023/07/31 08:46:40;;;;;;;7.47;6.67;;;;;;;26.21;63.41;96595.81;5066384;28;20209;-74
2023/07/31 08:49:10;;;;;;;8.73;7.80;;;;;;;26.54;63.38;96599.81;5048602;28;20297;-74
2023/07/31 08:51:50;;;;;;;8.37;6.40;;;;;;;26.44;62.27;96611.72;5066129;28;20201;-76
2023/07/31 08:54:17;;;;;;;7.20;6.23;;;;;;;26.21;62.08;96600.28;5048495;28;20189;-75
2023/07/31 08:56:46;;;;;;;7.40;6.63;;;;;;;26.68;61.32;96613.34;5066447;28;20575;-76
2023/07/31 08:59:17;;;;;;;11.63;7.67;;;;;;;26.92;60.85;96613.97;5066138;28;20274;-76
2023/07/31 09:02:27;;;;;;;7.73;6.70;;;;;;;26.86;60.12;96604.06;5066016;28;20771;-77
2023/07/31 09:05:48;;;;;;;7.30;5.87;;;;;;;26.73;60.66;96611.81;5054868;28;20197;-75
2023/07/31 09:09:09;;;;;;;8.63;6.47;;;;;;;26.79;61.03;96602.31;5054973;28;20531;-76
2023/07/31 09:12:30;;;;;;;9.70;7.70;;;;;;;26.08;60.96;96546.94;5047768;28;20197;-76
2023/07/31 09:15:51;;;;;;;9.77;6.73;;;;;;;26.14;61.56;96592.19;5073858;28;20280;-75
2023/07/31 09:19:14;;;;;;;11.40;7.57;;;;;;;26.06;62.42;96621.44;5046696;28;20229;-75
2023/07/31 09:22:35;;;;;;;8.40;7.27;;;;;;;26.26;61.64;96605.88;5064550;28;20185;-74
2023/07/31 09:25:39;;;;;;;10.87;7.70;;;;;;;26.76;60.85;96608.81;5065071;28;20181;-76
2023/07/31 09:28:59;;;;;;;11.13;8.67;;;;;;;26.65;61.45;96617.16;5064953;28;20664;-76
2023/07/31 09:32:20;;;;;;;9.23;7.67;;;;;;;26.86;60.73;96590.75;5064914;28;20190;-79
2023/07/31 09:35:41;;;;;;;9.73;6.73;;;;;;;27.35;59.71;96602.53;5065006;28;20185;-78
2023/07/31 09:39:02;;;;;;;9.40;6.33;;;;;;;27.33;59.28;96598.38;5046968;28;20225;-75
2023/07/31 09:42:22;;;;;;;7.60;6.90;;;;;;;27.01;60.20;96580.16;5049210;28;20219;-76
2023/07/31 09:45:46;;;;;;;8.40;7.43;;;;;;;27.23;59.59;96595.19;5065653;28;20236;-76
2023/07/31 09:49:08;;;;;;;8.03;7.23;;;;;;;27.55;58.64;96594.00;5050670;28;20235;-81
2023/07/31 09:52:29;;;;;;;7.27;6.27;;;;;;;27.10;59.41;96592.34;5069119;28;20186;-79
2023/07/31 09:55:50;;;;;;;7.70;6.70;;;;;;;27.37;57.61;96584.56;5051707;28;20279;-77
2023/07/31 09:59:11;;;;;;;7.20;6.50;;;;;;;27.22;58.47;96599.66;5034910;28;20216;-80
2023/07/31 10:02:31;;;;;;;9.27;7.40;;;;;;;27.48;58.03;96588.59;5069052;28;20193;-76
2023/07/31 10:05:53;;;;;;;8.13;6.97;;;;;;;27.85;56.88;96592.91;5034023;28;20247;-77
2023/07/31 10:09:13;;;;;;;8.13;7.13;;;;;;;27.97;55.68;96594.09;5050671;28;20221;-75
2023/07/31 10:12:35;;;;;;;6.97;6.23;;;;;;;27.91;55.61;96584.19;5069092;28;20196;-84
2023/07/31 10:15:56;;;;;;;8.10;7.20;;;;;;;27.82;54.57;96582.66;5068656;28;20197;-78
2023/07/31 10:18:38;;;;;;;6.60;6.00;;;;;;;27.91;54.68;96577.03;5068677;28;20700;-84
2023/07/31 10:21:06;;;;;;;7.10;6.40;;;;;;;28.42;53.17;96575.06;5069365;28;20695;-76
2023/07/31 10:23:34;;;;;;;6.67;5.93;;;;;;;28.14;52.83;96559.06;5051299;28;20196;-76
2023/07/31 10:26:03;;;;;;;7.13;6.17;;;;;;;28.30;52.75;96559.78;5069421;28;20193;-79
2023/07/31 10:28:33;;;;;;;8.37;6.27;;;;;;;28.51;51.89;96555.28;5069124;28;20197;-78
2023/07/31 10:31:02;;;;;;;8.50;6.20;;;;;;;28.26;51.73;96495.44;5069006;28;20193;-78
2023/07/31 10:33:30;;;;;;;5.43;4.93;;;;;;;28.48;50.67;96547.66;5034882;28;20204;-76
2023/07/31 10:36:33;;;;;;;5.50;4.90;;;;;;;28.41;50.13;96565.44;5050981;28;20238;-75
2023/07/31 10:39:04;;;;;;;5.23;4.63;;;;;;;28.22;50.37;96549.28;4968077;28;20232;-77
2023/07/31 10:41:32;;;;;;;4.70;4.10;;;;;;;28.36;48.82;96543.06;5035261;28;20201;-77
2023/07/31 10:44:02;;;;;;;5.17;4.13;;;;;;;28.21;48.01;96537.81;5073770;28;20205;-74
2023/07/31 10:46:29;;;;;;;4.13;3.53;;;;;;;28.13;48.83;96545.94;5057871;28;20711;-75
2023/07/31 10:49:01;;;;;;;5.77;4.20;;;;;;;27.64;50.52;96550.28;5070319;28;20193;-77
2023/07/31 10:51:36;;;;;;;3.93;3.53;;;;;;;27.13;50.41;96536.97;5053442;28;20197;-81
2023/07/31 10:54:14;;;;;;;4.73;3.10;;;;;;;27.01;50.79;96542.94;5052741;28;20660;-76
2023/07/31 10:56:46;;;;;;;4.20;3.53;;;;;;;27.06;50.86;96532.59;5051078;28;20200;-76
2023/07/31 10:59:17;;;;;;;6.20;4.23;;;;;;;27.23;51.85;96521.53;5050656;28;20224;-74
2023/07/31 11:01:57;;;;;;;6.63;4.60;;;;;;;27.64;51.46;96529.00;5068610;28;20336;-75
2023/07/31 11:04:27;;;;;;;6.63;4.20;;;;;;;27.78;50.69;96530.81;5050663;28;20326;-79
2023/07/31 11:06:59;;;;;;;4.67;4.17;;;;;;;27.66;49.25;96532.28;5050493;28;20770;-76
2023/07/31 11:09:32;;;;;;;4.20;3.80;;;;;;;27.47;48.41;96479.72;5050599;28;20243;-83
2023/07/31 11:12:00;;;;;;;4.47;3.50;;;;;;;27.85;47.40;96518.38;5068750;28;20203;-76
2023/07/31 11:14:27;;;;;;;5.37;3.43;;;;;;;27.64;48.08;96521.84;5068872;28;20201;-77
2023/07/31 11:16:55;;;;;;;3.50;2.97;;;;;;;27.43;47.53;96473.13;5068998;28;20190;-77
2023/07/31 11:19:24;;;;;;;5.10;3.60;;;;;;;27.82;48.05;96514.25;5050875;28;20225;-81
2023/07/31 11:21:56;;;;;;;4.20;3.63;;;;;;;27.91;48.53;96506.97;5068283;28;20280;-77
2023/07/31 11:24:24;;;;;;;3.60;3.30;;;;;;;27.85;48.17;96507.72;5068223;28;20201;-77
2023/07/31 11:26:52;;;;;;;5.43;3.27;;;;;;;27.85;47.97;96505.91;5068208;28;20189;-77
2023/07/31 11:29:20;;;;;;;5.40;3.53;;;;;;;27.81;48.23;96514.44;5050748;28;20190;-76
2023/07/31 11:31:49;;;;;;;3.50;3.20;;;;;;;27.50;48.67;96485.47;5067917;28;20615;-76
2023/07/31 11:34:17;;;;;;;3.83;3.37;;;;;;;27.37;50.25;96523.38;5050184;28;20284;-77
2023/07/31 11:36:55;;;;;;;3.53;3.20;;;;;;;27.29;51.08;96512.81;5067931;28;20208;-77
2023/07/31 11:39:22;;;;;;;4.07;3.20;;;;;;;27.11;51.12;96514.22;5049769;28;20699;-78
2023/07/31 11:41:49;;;;;;;4.50;3.47;;;;;;;26.98;51.42;96500.75;5067826;28;20185;-75
2023/07/31 11:44:17;;;;;;;5.83;4.17;;;;;;;27.06;51.70;96506.78;5067483;28;20193;-75
2023/07/31 11:46:56;;;;;;;3.60;3.20;;;;;;;27.03;51.41;96493.88;5068524;28;20193;-78
2023/07/31 11:49:25;;;;;;;3.70;3.40;;;;;;;26.94;51.25;96481.69;5068057;28;20220;-83
2023/07/31 11:51:53;;;;;;;3.33;3.03;;;;;;;27.27;50.29;96496.22;5033688;28;20782;-85
2023/07/31 11:54:20;;;;;;;3.73;3.30;;;;;;;26.99;51.24;96492.63;5036113;28;20181;-79
2023/07/31 11:56:49;;;;;;;3.67;3.20;;;;;;;26.86;50.82;96473.81;5069338;28;20232;-78
2023/07/31 11:59:17;;;;;;;3.17;2.87;;;;;;;26.90;51.34;96492.88;5067416;28;20248;-76